createdAt,value
2023-02-11T00:00:59.211Z,3.10
2023-02-11T00:03:46.828Z,3.20
2023-02-11T00:06:35.599Z,3.30
2023-02-11T00:09:23.018Z,3.20
2023-02-11T00:12:10.770Z,3.30
2023-02-11T00:14:58.026Z,3.40
2023-02-11T00:17:45.337Z,3.50
2023-02-11T00:20:32.820Z,3.70
2023-02-11T00:23:19.942Z,3.70
2023-02-11T00:26:16.463Z,3.80
2023-02-11T00:29:05.641Z,3.80
2023-02-11T00:31:53.138Z,3.90
2023-02-11T00:34:40.671Z,4.00
2023-02-11T00:37:28.133Z,4.00
2023-02-11T00:40:16.470Z,4.10
2023-02-11T00:43:03.554Z,4.10
2023-02-11T00:45:51.089Z,4.00
2023-02-11T00:48:38.947Z,4.10
2023-02-11T00:51:28.146Z,4.10
2023-02-11T00:54:15.453Z,4.20
2023-02-11T00:57:02.725Z,4.20
2023-02-11T00:59:50.654Z,4.30
2023-02-11T01:02:38.182Z,4.30
2023-02-11T01:05:25.782Z,4.30
2023-02-11T01:08:13.240Z,4.20
2023-02-11T01:11:03.275Z,4.20
2023-02-11T01:13:51.813Z,4.00
2023-02-11T01:16:39.221Z,3.90
2023-02-11T01:19:26.880Z,3.80
2023-02-11T01:22:14.605Z,3.90
2023-02-11T01:25:01.999Z,3.90
2023-02-11T01:27:49.641Z,3.80
2023-02-11T01:30:37.085Z,3.70
2023-02-11T01:33:25.461Z,3.90
2023-02-11T01:36:13.580Z,3.90
2023-02-11T01:39:00.776Z,4.10
2023-02-11T01:41:48.028Z,4.20
2023-02-11T01:44:38.632Z,4.10
2023-02-11T01:47:25.767Z,4.00
2023-02-11T01:50:13.407Z,3.90
2023-02-11T01:53:02.948Z,4.10
2023-02-11T01:56:10.885Z,4.30
2023-02-11T01:59:01.448Z,4.40
2023-02-11T02:01:52.585Z,4.50
2023-02-11T02:04:49.044Z,4.50
2023-02-11T02:07:42.328Z,4.60
2023-02-11T02:10:32.144Z,4.70
2023-02-11T02:13:19.385Z,4.70
2023-02-11T02:16:10.089Z,4.70
2023-02-11T02:19:12.950Z,4.80
2023-02-11T02:22:34.974Z,4.80
2023-02-11T02:25:41.712Z,4.90
2023-02-11T02:29:06.370Z,4.80
2023-02-11T02:32:31.565Z,4.70
2023-02-11T02:35:43.521Z,4.50
2023-02-11T02:38:40.069Z,4.10
2023-02-11T02:41:33.260Z,3.80
2023-02-11T02:44:21.459Z,3.80
2023-02-11T02:47:08.882Z,3.70
2023-02-11T02:49:56.166Z,3.70
2023-02-11T02:52:49.969Z,3.60
2023-02-11T02:55:49.057Z,3.60
2023-02-11T02:59:02.502Z,3.50
2023-02-11T03:02:07.558Z,3.50
2023-02-11T03:04:58.257Z,3.60
2023-02-11T03:08:01.376Z,3.80
2023-02-11T03:10:51.769Z,3.90
2023-02-11T03:13:40.944Z,4.00
2023-02-11T03:16:29.571Z,4.10
2023-02-11T03:19:25.158Z,4.30
2023-02-11T03:22:18.320Z,4.50
2023-02-11T03:25:06.429Z,4.60
2023-02-11T03:27:56.995Z,4.70
2023-02-11T03:30:56.466Z,4.80
2023-02-11T03:33:49.784Z,4.90
2023-02-11T03:36:52.319Z,4.90
2023-02-11T03:39:42.616Z,4.80
2023-02-11T03:42:45.224Z,4.60
2023-02-11T03:45:33.282Z,4.60
2023-02-11T03:48:32.833Z,4.50
2023-02-11T03:51:22.661Z,4.30
2023-02-11T03:54:13.080Z,4.20
2023-02-11T03:57:03.018Z,4.00
2023-02-11T04:00:00.655Z,3.90
2023-02-11T04:02:48.196Z,3.80
2023-02-11T04:05:36.235Z,3.60
2023-02-11T04:08:23.580Z,3.50
2023-02-11T04:11:10.964Z,3.40
2023-02-11T04:13:58.249Z,3.50
2023-02-11T04:16:45.879Z,3.50
2023-02-11T04:19:33.141Z,3.60
2023-02-11T04:22:20.772Z,3.70
2023-02-11T04:25:09.432Z,3.70
2023-02-11T04:27:56.727Z,3.70
2023-02-11T04:30:44.273Z,3.70
2023-02-11T04:33:31.228Z,3.80
2023-02-11T04:36:18.696Z,3.90
2023-02-11T04:39:06.540Z,4.00
2023-02-11T04:41:54.024Z,3.90
2023-02-11T04:44:41.346Z,4.00
2023-02-11T04:47:28.853Z,4.00
2023-02-11T04:50:16.381Z,4.10
2023-02-11T04:53:03.487Z,4.20
2023-02-11T04:55:51.792Z,4.20
2023-02-11T04:58:39.584Z,4.20
2023-02-11T05:01:27.239Z,4.30
2023-02-11T05:04:14.635Z,4.40
2023-02-11T05:07:01.670Z,4.40
2023-02-11T05:09:48.763Z,4.40
2023-02-11T05:12:36.011Z,4.30
2023-02-11T05:15:23.258Z,4.40
2023-02-11T05:18:10.737Z,4.30
2023-02-11T05:20:58.097Z,4.10
2023-02-11T05:23:46.292Z,3.90
2023-02-11T05:26:34.141Z,3.80
2023-02-11T05:29:21.307Z,3.90
2023-02-11T05:32:09.172Z,4.00
2023-02-11T05:34:56.582Z,4.10
2023-02-11T05:37:44.136Z,4.20
2023-02-11T05:40:31.266Z,4.30
2023-02-11T05:43:18.793Z,4.40
2023-02-11T05:46:06.585Z,4.40
2023-02-11T05:48:54.159Z,4.30
2023-02-11T05:51:41.889Z,4.40
2023-02-11T05:54:29.232Z,4.50
2023-02-11T05:57:17.388Z,4.50
2023-02-11T06:00:06.382Z,4.30
2023-02-11T06:02:53.946Z,4.20
2023-02-11T06:05:43.108Z,4.20
2023-02-11T06:08:30.388Z,4.20
2023-02-11T06:11:18.626Z,4.00
2023-02-11T06:14:06.050Z,3.90
2023-02-11T06:16:53.277Z,3.90
2023-02-11T06:19:41.024Z,3.90
2023-02-11T06:22:28.522Z,4.10
2023-02-11T06:25:16.031Z,4.20
2023-02-11T06:28:04.182Z,4.20
2023-02-11T06:30:51.996Z,4.10
2023-02-11T06:33:40.038Z,3.90
2023-02-11T06:36:27.029Z,3.70
2023-02-11T06:39:15.215Z,3.60
2023-02-11T06:42:02.720Z,3.60
2023-02-11T06:44:50.271Z,3.60
2023-02-11T06:47:37.752Z,3.70
2023-02-11T06:50:25.424Z,3.80
2023-02-11T06:53:12.928Z,3.70
2023-02-11T06:56:09.704Z,3.50
2023-02-11T06:58:58.221Z,3.50
2023-02-11T07:01:45.759Z,3.30
2023-02-11T07:04:33.802Z,3.20
2023-02-11T07:07:21.302Z,3.10
2023-02-11T07:10:08.995Z,3.00
2023-02-11T07:12:58.726Z,3.10
2023-02-11T07:15:44.815Z,3.00
2023-02-11T07:18:31.959Z,3.10
2023-02-11T07:21:21.885Z,3.20
2023-02-11T07:24:11.267Z,3.30
2023-02-11T07:26:58.671Z,3.30
2023-02-11T07:29:47.106Z,3.30
2023-02-11T07:32:34.562Z,3.30
2023-02-11T07:35:21.775Z,3.20
2023-02-11T07:38:09.171Z,3.30
2023-02-11T07:40:58.158Z,3.40
2023-02-11T07:43:46.434Z,3.60
2023-02-11T07:46:35.690Z,3.60
2023-02-11T07:49:23.382Z,3.60
2023-02-11T07:52:10.817Z,3.70
2023-02-11T07:54:58.640Z,3.80
2023-02-11T07:57:45.906Z,3.90
2023-02-11T08:00:33.103Z,4.00
2023-02-11T08:03:20.346Z,4.00
2023-02-11T08:06:10.616Z,4.00
2023-02-11T08:08:58.091Z,4.10
2023-02-11T08:11:45.580Z,4.10
2023-02-11T08:14:32.870Z,4.10
2023-02-11T08:17:20.517Z,4.20
2023-02-11T08:20:08.214Z,4.20
2023-02-11T08:22:55.588Z,4.10
2023-02-11T08:25:43.209Z,4.20
2023-02-11T08:28:30.658Z,4.10
2023-02-11T08:31:27.267Z,4.00
2023-02-11T08:34:18.130Z,4.00
2023-02-11T08:37:05.373Z,4.00
2023-02-11T08:39:52.810Z,4.10
2023-02-11T08:42:39.913Z,4.00
2023-02-11T08:45:27.408Z,3.90
2023-02-11T08:48:15.027Z,3.90
2023-02-11T08:51:04.008Z,4.00
2023-02-11T08:53:52.016Z,4.10
2023-02-11T08:56:40.321Z,4.20
2023-02-11T08:59:27.352Z,4.30
2023-02-11T09:02:15.503Z,4.70
2023-02-11T09:05:02.977Z,5.00
2023-02-11T09:07:50.388Z,5.20
2023-02-11T09:10:38.699Z,5.50
2023-02-11T09:13:26.012Z,5.70
2023-02-11T09:16:19.764Z,5.90
2023-02-11T09:19:07.198Z,6.00
2023-02-11T09:21:54.457Z,6.20
2023-02-11T09:24:41.523Z,6.30
2023-02-11T09:27:28.863Z,6.40
2023-02-11T09:30:16.456Z,6.30
2023-02-11T09:33:04.201Z,6.30
2023-02-11T09:35:51.557Z,6.10
2023-02-11T09:38:38.857Z,6.00
2023-02-11T09:41:44.593Z,5.90
2023-02-11T09:44:34.936Z,5.90
2023-02-11T09:47:28.506Z,5.80
2023-02-11T09:50:37.063Z,5.90
2023-02-11T09:53:29.837Z,5.90
2023-02-11T09:56:17.244Z,5.70
2023-02-11T09:59:05.753Z,5.50
2023-02-11T10:02:05.630Z,5.40
2023-02-11T10:05:15.862Z,5.30
2023-02-11T10:08:07.905Z,5.40
2023-02-11T10:11:30.949Z,5.50
2023-02-11T10:14:32.654Z,5.60
2023-02-11T10:17:32.288Z,5.50
2023-02-11T10:20:25.553Z,5.80
2023-02-11T10:23:21.931Z,6.00
2023-02-11T10:26:15.555Z,5.90
2023-02-11T10:29:06.054Z,5.80
2023-02-11T10:31:56.539Z,5.90
2023-02-11T10:34:43.393Z,6.00
2023-02-11T10:37:31.775Z,6.10
2023-02-11T10:40:22.446Z,6.10
2023-02-11T10:43:13.227Z,6.20
2023-02-11T10:46:02.829Z,6.30
2023-02-11T10:48:52.935Z,6.30
2023-02-11T10:51:39.916Z,6.40
2023-02-11T10:54:27.489Z,6.40
2023-02-11T10:57:17.981Z,6.40
2023-02-11T11:00:21.580Z,6.60
2023-02-11T11:03:17.743Z,6.70
2023-02-11T11:06:10.378Z,6.80
2023-02-11T11:08:58.258Z,6.80
2023-02-11T11:11:48.298Z,7.00
2023-02-11T11:14:35.507Z,7.10
2023-02-11T11:17:22.850Z,7.30
2023-02-11T11:20:32.640Z,7.40
2023-02-11T11:23:24.388Z,7.50
2023-02-11T11:26:14.604Z,7.50
2023-02-11T11:29:05.202Z,7.60
2023-02-11T11:32:00.824Z,7.50
2023-02-11T11:35:02.765Z,7.50
2023-02-11T11:38:05.131Z,7.50
2023-02-11T11:41:11.894Z,7.60
2023-02-11T11:44:18.907Z,7.70
2023-02-11T11:47:09.532Z,7.60
2023-02-11T11:50:22.760Z,7.90
2023-02-11T11:53:31.092Z,8.00
2023-02-11T11:56:21.728Z,8.10
2023-02-11T11:59:13.656Z,8.10
2023-02-11T12:02:39.095Z,8.30
2023-02-11T12:05:35.564Z,8.30
2023-02-11T12:08:31.706Z,8.10
2023-02-11T12:11:49.600Z,8.10
2023-02-11T12:14:45.810Z,8.20
2023-02-11T12:17:52.970Z,8.00
2023-02-11T12:20:46.524Z,8.10
2023-02-11T12:23:45.946Z,8.10
2023-02-11T12:26:36.517Z,8.10
2023-02-11T12:29:45.097Z,8.10
2023-02-11T12:32:41.526Z,8.00
2023-02-11T12:35:41.100Z,8.10
2023-02-11T12:38:49.959Z,8.20
2023-02-11T12:42:10.121Z,8.30
2023-02-11T12:45:00.791Z,8.30
2023-02-11T12:48:02.728Z,8.20
2023-02-11T12:51:16.147Z,8.50
2023-02-11T12:54:12.497Z,8.60
2023-02-11T12:57:03.306Z,8.50
2023-02-11T13:00:06.017Z,8.40
2023-02-11T13:03:08.364Z,8.40
2023-02-11T13:06:04.735Z,8.20
2023-02-11T13:08:55.799Z,8.40
2023-02-11T13:11:47.669Z,8.60
2023-02-11T13:14:38.240Z,8.80
2023-02-11T13:17:37.631Z,8.90
2023-02-11T13:20:45.533Z,8.70
2023-02-11T13:23:47.506Z,8.70
2023-02-11T13:26:54.193Z,8.80
2023-02-11T13:30:06.466Z,8.70
2023-02-11T13:32:56.729Z,8.70
2023-02-11T13:35:59.311Z,8.70
2023-02-11T13:39:01.665Z,8.70
2023-02-11T13:41:52.733Z,8.80
2023-02-11T13:44:39.744Z,8.80
2023-02-11T13:47:32.805Z,8.80
2023-02-11T13:50:23.560Z,8.70
2023-02-11T13:53:11.084Z,8.70
2023-02-11T13:56:13.723Z,8.60
2023-02-11T13:59:03.622Z,8.60
2023-02-11T14:02:12.090Z,8.60
2023-02-11T14:05:26.762Z,8.50
2023-02-11T14:08:37.570Z,8.40
2023-02-11T14:11:42.512Z,8.10
2023-02-11T14:14:34.952Z,8.10
2023-02-11T14:17:31.006Z,8.10
2023-02-11T14:20:44.550Z,8.20
2023-02-11T14:23:32.597Z,8.10
2023-02-11T14:26:28.965Z,8.10
2023-02-11T14:29:19.332Z,8.20
2023-02-11T14:32:32.105Z,8.40
2023-02-11T14:35:58.117Z,8.30
2023-02-11T14:39:14.040Z,8.40
2023-02-11T14:42:03.404Z,8.30
2023-02-11T14:44:53.064Z,8.40
2023-02-11T14:47:50.661Z,8.60
2023-02-11T14:50:56.396Z,8.60
2023-02-11T14:53:53.120Z,8.50
2023-02-11T14:56:40.707Z,8.40
2023-02-11T14:59:28.415Z,8.30
2023-02-11T15:02:21.676Z,8.30
2023-02-11T15:05:18.926Z,8.40
2023-02-11T15:08:09.691Z,8.40
2023-02-11T15:10:56.676Z,8.50
2023-02-11T15:13:50.548Z,8.50
2023-02-11T15:16:43.815Z,8.50
2023-02-11T15:19:37.393Z,8.50
2023-02-11T15:22:32.345Z,8.60
2023-02-11T15:25:20.296Z,8.70
2023-02-11T15:28:10.726Z,8.80
2023-02-11T15:31:06.164Z,8.60
2023-02-11T15:33:54.820Z,8.50
2023-02-11T15:36:42.830Z,8.40
2023-02-11T15:39:44.059Z,8.40
2023-02-11T15:42:43.862Z,8.60
2023-02-11T15:45:28.207Z,8.60
2023-02-11T15:48:24.360Z,8.60
2023-02-11T15:51:33.128Z,8.70
2023-02-11T15:54:23.832Z,8.80
2023-02-11T15:57:11.834Z,8.70
2023-02-11T16:00:01.276Z,8.80
2023-02-11T16:02:50.896Z,8.80
2023-02-11T16:05:40.756Z,8.80
2023-02-11T16:08:31.645Z,8.80
2023-02-11T16:11:38.397Z,8.60
2023-02-11T16:14:34.604Z,8.60
2023-02-11T16:17:28.246Z,8.60
2023-02-11T16:20:22.184Z,8.70
2023-02-11T16:23:11.122Z,8.80
2023-02-11T16:26:08.485Z,8.80
2023-02-11T16:29:07.739Z,8.60
2023-02-11T16:31:57.226Z,8.60
2023-02-11T16:34:44.843Z,8.60
2023-02-11T16:37:32.430Z,8.70
2023-02-11T16:40:19.814Z,8.80
2023-02-11T16:43:06.936Z,8.90
2023-02-11T16:45:54.585Z,9.00
2023-02-11T16:48:41.997Z,9.00
2023-02-11T16:51:29.114Z,8.90
2023-02-11T16:54:19.090Z,8.80
2023-02-11T16:57:21.108Z,8.70
2023-02-11T17:00:09.357Z,8.60
2023-02-11T17:02:56.963Z,8.60
2023-02-11T17:05:55.003Z,8.60
2023-02-11T17:08:35.706Z,8.60
2023-02-11T17:11:23.123Z,8.60
2023-02-11T17:14:10.483Z,8.70
2023-02-11T17:16:58.239Z,8.70
2023-02-11T17:19:47.330Z,8.70
2023-02-11T17:22:34.732Z,8.60
2023-02-11T17:25:23.371Z,8.60
2023-02-11T17:28:12.117Z,8.50
2023-02-11T17:31:00.340Z,8.40
2023-02-11T17:33:48.327Z,8.40
2023-02-11T17:36:35.587Z,8.50
2023-02-11T17:39:23.837Z,8.60
2023-02-11T17:42:11.818Z,8.50
2023-02-11T17:44:58.950Z,8.40
2023-02-11T17:47:48.052Z,8.40
2023-02-11T17:50:37.135Z,8.50
2023-02-11T17:53:24.597Z,8.50
2023-02-11T17:56:12.088Z,8.50
2023-02-11T17:58:59.700Z,8.50
2023-02-11T18:01:47.045Z,8.50
2023-02-11T18:04:34.805Z,8.60
2023-02-11T18:07:21.986Z,8.50
2023-02-11T18:10:10.313Z,8.60
2023-02-11T18:12:59.318Z,8.60
2023-02-11T18:15:46.623Z,8.60
2023-02-11T18:18:36.863Z,8.50
2023-02-11T18:21:25.034Z,8.60
2023-02-11T18:24:12.666Z,8.80
2023-02-11T18:26:59.912Z,9.00
2023-02-11T18:29:47.273Z,9.10
2023-02-11T18:32:34.583Z,9.10
2023-02-11T18:35:22.312Z,9.10
2023-02-11T18:38:10.476Z,9.00
2023-02-11T18:40:58.774Z,8.80
2023-02-11T18:43:46.571Z,8.70
2023-02-11T18:46:34.293Z,8.70
2023-02-11T18:49:22.041Z,8.90
2023-02-11T18:52:09.516Z,9.10
2023-02-11T18:54:56.786Z,9.20
2023-02-11T18:57:44.124Z,9.30
2023-02-11T19:00:31.697Z,9.40
2023-02-11T19:03:18.932Z,9.50
2023-02-11T19:06:07.073Z,9.40
2023-02-11T19:08:59.008Z,9.30
2023-02-11T19:11:46.682Z,9.40
2023-02-11T19:14:34.804Z,9.30
2023-02-11T19:17:22.068Z,9.10
2023-02-11T19:20:10.050Z,9.10
2023-02-11T19:22:58.134Z,9.00
2023-02-11T19:25:49.147Z,8.90
2023-02-11T19:28:37.337Z,8.90
2023-02-11T19:31:25.239Z,9.10
2023-02-11T19:34:14.216Z,9.20
2023-02-11T19:37:01.725Z,9.20
2023-02-11T19:39:50.263Z,9.30
2023-02-11T19:42:37.696Z,9.30
2023-02-11T19:45:26.934Z,9.30
2023-02-11T19:48:14.165Z,9.20
2023-02-11T19:51:13.324Z,9.10
2023-02-11T19:54:01.591Z,9.10
2023-02-11T19:56:49.175Z,9.00
2023-02-11T19:59:36.647Z,8.90
2023-02-11T20:02:24.959Z,8.90
2023-02-11T20:05:12.264Z,8.80
2023-02-11T20:08:00.300Z,8.90
2023-02-11T20:10:47.594Z,9.00
2023-02-11T20:13:38.359Z,8.90
2023-02-11T20:16:44.637Z,8.90
2023-02-11T20:19:21.862Z,8.90
2023-02-11T20:22:09.244Z,8.90
2023-02-11T20:24:56.987Z,8.90
2023-02-11T20:27:44.222Z,8.80
2023-02-11T20:30:31.873Z,8.70
2023-02-11T20:33:19.581Z,8.80
2023-02-11T20:36:09.852Z,8.80
2023-02-11T20:38:57.268Z,8.80
2023-02-11T20:41:45.912Z,8.80
2023-02-11T20:44:33.351Z,8.70
2023-02-11T20:47:21.964Z,8.70
2023-02-11T20:50:09.920Z,8.70
2023-02-11T20:52:57.962Z,8.70
2023-02-11T20:55:45.228Z,8.60
2023-02-11T20:58:32.919Z,8.50
2023-02-11T21:01:26.145Z,8.40
2023-02-11T21:04:16.626Z,8.40
2023-02-11T21:07:04.043Z,8.40
2023-02-11T21:09:51.707Z,8.50
2023-02-11T21:12:39.329Z,8.60
2023-02-11T21:15:27.026Z,8.80
2023-02-11T21:18:14.307Z,8.80
2023-02-11T21:21:02.144Z,8.90
2023-02-11T21:23:49.620Z,9.10
2023-02-11T21:26:37.201Z,9.20
2023-02-11T21:29:24.619Z,9.30
2023-02-11T21:32:12.458Z,9.30
2023-02-11T21:35:02.266Z,9.40
2023-02-11T21:37:49.223Z,9.50
2023-02-11T21:40:36.733Z,9.50
2023-02-11T21:43:25.895Z,9.60
2023-02-11T21:46:15.810Z,9.60
2023-02-11T21:49:03.220Z,9.60
2023-02-11T21:51:50.640Z,9.60
2023-02-11T21:54:38.231Z,9.50
2023-02-11T21:57:25.589Z,9.50
2023-02-11T22:00:13.931Z,9.50
2023-02-11T22:03:01.430Z,9.50
2023-02-11T22:05:48.661Z,9.40
2023-02-11T22:08:36.686Z,9.30
2023-02-11T22:11:24.805Z,9.20
2023-02-11T22:14:13.370Z,9.20
2023-02-11T22:17:00.616Z,9.10
2023-02-11T22:19:48.414Z,9.10
2023-02-11T22:22:35.662Z,9.10
2023-02-11T22:25:23.129Z,9.00
2023-02-11T22:28:10.807Z,8.80
2023-02-11T22:30:59.834Z,8.60
2023-02-11T22:33:47.897Z,8.70
2023-02-11T22:36:41.298Z,8.70
2023-02-11T22:39:28.935Z,8.60
2023-02-11T22:42:16.463Z,8.50
2023-02-11T22:45:04.170Z,8.40
2023-02-11T22:47:51.565Z,8.50
2023-02-11T22:50:47.890Z,8.60
2023-02-11T22:53:35.405Z,8.70
2023-02-11T22:56:23.188Z,8.80
2023-02-11T22:59:13.706Z,8.90
2023-02-11T23:02:01.293Z,8.90
2023-02-11T23:04:49.949Z,8.90
2023-02-11T23:07:37.506Z,9.00
2023-02-11T23:10:24.840Z,9.00
2023-02-11T23:13:12.182Z,8.90
2023-02-11T23:15:59.704Z,8.90
2023-02-11T23:18:48.540Z,9.00
2023-02-11T23:21:39.032Z,8.90
2023-02-11T23:24:26.422Z,9.00
2023-02-11T23:27:14.097Z,8.90
2023-02-11T23:30:01.351Z,8.90
2023-02-11T23:32:49.075Z,8.90
2023-02-11T23:35:36.742Z,8.90
2023-02-11T23:38:24.214Z,8.90
2023-02-11T23:41:12.587Z,8.90
2023-02-11T23:43:59.754Z,8.90
2023-02-11T23:46:47.037Z,8.80
2023-02-11T23:49:34.373Z,8.80
2023-02-11T23:52:21.560Z,8.70
2023-02-11T23:55:09.173Z,8.60
2023-02-11T23:57:56.681Z,8.50
